Time;durP1;ratioP1;P1;durP2;ratioP2;P2;SDS_P1;SDS_P2;PMS_P1;PMS_P2;Temp;Humidity;BMP_temperature;BMP_pressure;BME280_temperature;BME280_humidity;BME280_pressure;Samples;Min_cycle;Max_cycle;Signal;HPM_P1;HPM_P2
2022/09/18 00:00:43;;;;;;;6.68;1.30;;;12.50;81.30;;;;;;5136454;27;20015;-42
2022/09/18 00:03:09;;;;;;;6.15;1.40;;;12.50;81.30;;;;;;5136129;27;20416;-43
2022/09/18 00:05:36;;;;;;;5.90;1.50;;;12.50;81.20;;;;;;5136128;27;20023;-40
2022/09/18 00:08:02;;;;;;;5.32;1.83;;;12.60;81.30;;;;;;5135211;27;20019;-41
2022/09/18 00:10:28;;;;;;;6.97;1.40;;;12.60;81.30;;;;;;5135966;27;20027;-38
2022/09/18 00:12:54;;;;;;;4.93;1.20;;;12.60;81.30;;;;;;5135609;27;20126;-42
2022/09/18 00:15:20;;;;;;;8.60;1.33;;;12.60;81.30;;;;;;5135940;27;20038;-41
2022/09/18 00:17:45;;;;;;;5.78;1.50;;;12.60;81.40;;;;;;5117547;27;20015;-42
2022/09/18 00:20:11;;;;;;;5.57;1.30;;;12.70;81.40;;;;;;5135675;27;20023;-43
2022/09/18 00:22:38;;;;;;;5.07;1.30;;;12.70;81.40;;;;;;5135563;27;20522;-40
2022/09/18 00:25:04;;;;;;;6.82;1.20;;;12.70;82.10;;;;;;5135470;27;20056;-42
2022/09/18 00:27:29;;;;;;;5.30;1.23;;;12.70;81.50;;;;;;5135874;27;20086;-41
2022/09/18 00:29:55;;;;;;;3.08;1.00;;;12.60;81.60;;;;;;5135527;27;20024;-41
2022/09/18 00:32:20;;;;;;;6.32;1.50;;;12.60;81.60;;;;;;5135763;27;20042;-44
2022/09/18 00:34:49;;;;;;;7.40;1.30;;;12.60;81.60;;;;;;5135310;27;20032;-42
2022/09/18 00:37:15;;;;;;;3.95;1.20;;;12.60;81.60;;;;;;5135245;27;20470;-42
2022/09/18 00:39:40;;;;;;;4.63;1.10;;;12.70;81.60;;;;;;5135388;27;20033;-42
2022/09/18 00:42:09;;;;;;;6.97;1.40;;;12.70;81.70;;;;;;5134993;27;20023;-44
2022/09/18 00:44:47;;;;;;;4.75;1.42;;;12.70;81.70;;;;;;5134997;27;20643;-41
2022/09/18 00:47:13;;;;;;;6.03;1.25;;;12.70;81.80;;;;;;5134995;27;20015;-43
2022/09/18 00:49:46;;;;;;;4.45;1.10;;;12.70;81.80;;;;;;5135224;27;20019;-44
2022/09/18 00:52:14;;;;;;;6.40;1.30;;;12.70;81.80;;;;;;5135030;27;20432;-44
2022/09/18 00:54:42;;;;;;;3.63;0.93;;;12.70;81.80;;;;;;5134693;27;20331;-42
2022/09/18 00:57:12;;;;;;;4.13;1.20;;;12.70;81.80;;;;;;5134712;27;20406;-28
2022/09/18 00:59:41;;;;;;;5.63;1.35;;;12.70;81.90;;;;;;5134623;27;20023;-31
2022/09/18 01:02:06;;;;;;;2.80;1.00;;;12.70;82.00;;;;;;5134565;27;20363;-30
2022/09/18 01:04:32;;;;;;;7.47;1.27;;;12.80;82.00;;;;;;5135076;27;20011;-30
2022/09/18 01:07:17;;;;;;;7.75;1.50;;;12.80;82.10;;;;;;5134696;27;20067;-28
2022/09/18 01:09:51;;;;;;;7.00;1.17;;;12.80;82.20;;;;;;5134705;27;20027;-28
2022/09/18 01:12:40;;;;;;;5.32;1.25;;;12.80;82.10;;;;;;5134530;27;20023;-30
2022/09/18 01:15:15;;;;;;;4.45;1.27;;;12.80;82.10;;;;;;5133918;27;20019;-28
2022/09/18 01:17:53;;;;;;;5.43;1.30;;;12.80;82.80;;;;;;5134208;27;20015;-29
2022/09/18 01:20:39;;;;;;;4.93;1.23;;;12.80;82.20;;;;;;5133316;27;20110;-28
2022/09/18 01:23:41;;;;;;;3.55;1.05;;;12.80;82.20;;;;;;5134044;27;20521;-29
2022/09/18 01:26:16;;;;;;;2.40;1.00;;;12.80;82.20;;;;;;5133644;27;20023;-31
2022/09/18 01:28:52;;;;;;;6.00;1.30;;;12.80;82.30;;;;;;5133728;27;20030;-32
2022/09/18 01:31:49;;;;;;;6.70;1.77;;;12.80;82.30;;;;;;5133818;27;20027;-32
2022/09/18 01:34:33;;;;;;;4.70;1.00;;;12.80;82.40;;;;;;5132150;27;20130;-29
2022/09/18 01:37:14;;;;;;;6.85;1.20;;;12.70;82.40;;;;;;5133505;27;20034;-32
2022/09/18 01:39:49;;;;;;;4.05;0.98;;;12.70;82.40;;;;;;5133469;27;20031;-25
2022/09/18 01:42:17;;;;;;;4.93;1.10;;;12.80;82.50;;;;;;5133457;27;20087;-26
2022/09/18 01:44:44;;;;;;;5.97;1.25;;;12.80;82.50;;;;;;5114827;27;20027;-25
2022/09/18 01:47:12;;;;;;;4.32;1.13;;;12.80;82.60;;;;;;5133648;27;20023;-26
2022/09/18 01:49:45;;;;;;;6.93;1.20;;;12.80;82.60;;;;;;5114872;27;20019;-26
2022/09/18 01:52:28;;;;;;;5.22;1.35;;;12.80;82.60;;;;;;5133417;27;20031;-26
2022/09/18 01:54:56;;;;;;;5.35;1.33;;;12.80;82.50;;;;;;5133361;27;20023;-26
2022/09/18 01:57:26;;;;;;;5.30;1.10;;;12.80;82.50;;;;;;5133270;27;20142;-33
2022/09/18 02:00:05;;;;;;;5.70;1.20;;;12.90;82.50;;;;;;5133226;27;20109;-47
2022/09/18 02:02:36;;;;;;;4.10;1.08;;;12.90;82.50;;;;;;5133598;27;20123;-41
2022/09/18 02:05:06;;;;;;;4.60;0.93;;;12.90;82.50;;;;;;5133248;27;20019;-44
2022/09/18 02:07:46;;;;;;;5.32;1.10;;;12.80;82.50;;;;;;5133737;27;20024;-42
2022/09/18 02:10:11;;;;;;;3.42;1.02;;;12.90;82.70;;;;;;5133398;27;20470;-26
2022/09/18 02:12:40;;;;;;;2.60;0.98;;;12.80;82.80;;;;;;5133550;28;20098;-25
2022/09/18 02:15:09;;;;;;;4.25;1.13;;;12.80;83.00;;;;;;5133449;28;20564;-25
2022/09/18 02:17:45;;;;;;;4.85;0.95;;;12.80;83.20;;;;;;5133555;28;20019;-44
2022/09/18 02:20:19;;;;;;;3.78;1.00;;;12.70;83.30;;;;;;5133347;28;20020;-43
2022/09/18 02:22:46;;;;;;;3.97;1.15;;;12.70;83.50;;;;;;5114896;28;20019;-42
2022/09/18 02:25:16;;;;;;;3.60;0.98;;;12.70;83.50;;;;;;5133207;28;20019;-42
2022/09/18 02:27:42;;;;;;;3.22;0.82;;;12.70;83.60;;;;;;5133300;28;20016;-42
2022/09/18 02:30:09;;;;;;;6.22;1.10;;;12.60;83.80;;;;;;5133884;27;20355;-41
2022/09/18 02:32:36;;;;;;;4.05;0.90;;;12.60;83.70;;;;;;5137869;27;20024;-43
2022/09/18 02:35:04;;;;;;;6.43;0.95;;;12.70;83.80;;;;;;5137124;27;20088;-42
2022/09/18 02:38:01;;;;;;;4.10;0.75;;;12.70;83.90;;;;;;5137321;27;20026;-42
2022/09/18 02:40:40;;;;;;;3.90;0.90;;;12.70;83.90;;;;;;5137286;27;20050;-43
2022/09/18 02:43:24;;;;;;;4.25;0.90;;;12.70;83.90;;;;;;5136951;27;20118;-43
2022/09/18 02:46:22;;;;;;;2.88;0.80;;;12.70;83.90;;;;;;5136896;27;20023;-40
2022/09/18 02:49:10;;;;;;;3.33;0.88;;;12.70;84.00;;;;;;5131945;27;20551;-43
2022/09/18 02:51:57;;;;;;;3.88;1.15;;;12.70;84.00;;;;;;5136944;27;20023;-43
2022/09/18 02:54:45;;;;;;;3.78;1.10;;;12.70;84.10;;;;;;5136998;27;20019;-44
2022/09/18 02:57:30;;;;;;;5.68;1.13;;;12.70;84.20;;;;;;5136752;27;20143;-44
2022/09/18 02:59:59;;;;;;;3.35;0.93;;;12.60;84.20;;;;;;5137118;27;20077;-44
2022/09/18 03:02:25;;;;;;;4.32;1.13;;;12.60;84.20;;;;;;5136944;27;20015;-43
2022/09/18 03:04:51;;;;;;;2.97;0.80;;;12.70;84.40;;;;;;5137162;27;20122;-43
2022/09/18 03:07:17;;;;;;;4.85;1.02;;;12.60;84.40;;;;;;5136625;27;20011;-43
2022/09/18 03:09:43;;;;;;;5.55;1.10;;;12.60;84.40;;;;;;5136563;27;20027;-42
2022/09/18 03:12:09;;;;;;;5.60;1.42;;;12.70;84.60;;;;;;5136545;27;20475;-42
2022/09/18 03:14:34;;;;;;;4.15;1.20;;;12.70;84.60;;;;;;5137105;27;20027;-43
2022/09/18 03:17:01;;;;;;;4.35;1.10;;;12.70;84.60;;;;;;5136524;27;20113;-43
2022/09/18 03:19:26;;;;;;;7.20;1.00;;;12.70;84.60;;;;;;5136509;27;20479;-40
2022/09/18 03:21:52;;;;;;;5.65;1.20;;;12.70;84.70;;;;;;5136371;27;20019;-43
2022/09/18 03:24:19;;;;;;;6.30;1.10;;;12.70;84.70;;;;;;5136510;27;20106;-42
2022/09/18 03:26:45;;;;;;;3.85;0.88;;;12.70;84.70;;;;;;5118324;27;20382;-43
2022/09/18 03:29:12;;;;;;;4.35;0.98;;;12.70;84.70;;;;;;5136481;27;20064;-43
2022/09/18 03:31:38;;;;;;;3.25;0.88;;;12.70;84.80;;;;;;5118400;27;20019;-42
2022/09/18 03:34:04;;;;;;;4.43;1.05;;;12.70;84.80;;;;;;5136015;27;20023;-44
2022/09/18 03:36:30;;;;;;;5.25;1.10;;;12.70;84.90;;;;;;5136322;27;20092;-44
2022/09/18 03:38:56;;;;;;;5.88;1.10;;;12.60;85.00;;;;;;5135855;27;20053;-44
2022/09/18 03:41:23;;;;;;;4.55;1.38;;;12.60;85.10;;;;;;5136066;27;20076;-44
2022/09/18 03:43:49;;;;;;;5.05;0.88;;;12.60;85.10;;;;;;5135177;27;20015;-40
2022/09/18 03:46:21;;;;;;;4.25;1.10;;;12.60;85.20;;;;;;5136082;27;20024;-44
2022/09/18 03:48:47;;;;;;;4.57;1.02;;;12.60;85.30;;;;;;5136206;27;20030;-40
2022/09/18 03:51:13;;;;;;;2.20;0.85;;;12.50;85.30;;;;;;5136020;27;20031;-35
2022/09/18 03:53:38;;;;;;;3.95;0.95;;;12.50;85.30;;;;;;5136145;27;20057;-34
2022/09/18 03:56:04;;;;;;;4.22;0.93;;;12.60;85.40;;;;;;5136001;27;20023;-34
2022/09/18 03:58:30;;;;;;;3.63;0.80;;;12.50;85.30;;;;;;5116913;27;20436;-35
2022/09/18 04:00:56;;;;;;;5.68;0.90;;;12.50;85.30;;;;;;5117251;27;20019;-34
2022/09/18 04:03:21;;;;;;;2.03;0.68;;;12.50;85.30;;;;;;5135612;27;20019;-35
2022/09/18 04:05:48;;;;;;;2.58;0.82;;;12.50;85.30;;;;;;5135670;27;20068;-33
2022/09/18 04:08:14;;;;;;;3.10;0.88;;;12.50;85.30;;;;;;5135822;27;20156;-35
2022/09/18 04:10:40;;;;;;;3.95;0.90;;;12.50;85.20;;;;;;5135720;27;20075;-34
2022/09/18 04:13:05;;;;;;;4.85;1.10;;;12.60;85.40;;;;;;5135444;27;20019;-35
2022/09/18 04:15:31;;;;;;;3.75;0.93;;;12.60;85.40;;;;;;5135411;27;20486;-35
2022/09/18 04:17:56;;;;;;;4.07;0.82;;;12.60;85.40;;;;;;5135247;27;20031;-35
2022/09/18 04:20:22;;;;;;;5.15;1.10;;;12.60;85.40;;;;;;5135084;27;20019;-34
2022/09/18 04:22:48;;;;;;;3.72;0.70;;;12.50;85.40;;;;;;5135091;27;20015;-34
2022/09/18 04:25:16;;;;;;;5.68;0.95;;;12.50;85.40;;;;;;5135055;27;20023;-33
2022/09/18 04:27:42;;;;;;;6.07;1.00;;;12.60;85.50;;;;;;5135062;27;20027;-34
2022/09/18 04:30:08;;;;;;;3.63;0.90;;;12.50;85.40;;;;;;5134848;27;20332;-35
2022/09/18 04:32:34;;;;;;;4.97;1.15;;;12.60;85.50;;;;;;5135035;27;20016;-34
2022/09/18 04:34:59;;;;;;;3.17;1.10;;;12.60;85.60;;;;;;5116426;27;20019;-34
2022/09/18 04:37:25;;;;;;;3.08;0.73;;;12.50;85.60;;;;;;5116467;27;20031;-36
2022/09/18 04:39:50;;;;;;;2.88;0.90;;;12.50;86.20;;;;;;5116279;27;20058;-35
2022/09/18 04:42:16;;;;;;;5.13;0.85;;;12.50;85.70;;;;;;5134834;27;20085;-34
2022/09/18 04:44:42;;;;;;;3.63;0.90;;;12.50;85.70;;;;;;5134496;27;20023;-35
2022/09/18 04:47:07;;;;;;;2.88;0.60;;;12.50;85.80;;;;;;5134470;27;20030;-35
2022/09/18 04:49:33;;;;;;;4.32;1.00;;;12.50;85.80;;;;;;5134593;27;20153;-35
2022/09/18 04:51:58;;;;;;;3.67;0.98;;;12.50;85.80;;;;;;5134321;27;20027;-35
2022/09/18 04:54:24;;;;;;;5.20;0.90;;;12.50;85.80;;;;;;5134344;27;20101;-34
2022/09/18 04:56:49;;;;;;;4.30;0.90;;;12.50;85.80;;;;;;5134044;27;20043;-34
2022/09/18 04:59:15;;;;;;;3.50;0.95;;;12.50;85.80;;;;;;5134334;27;20041;-35
2022/09/18 05:01:40;;;;;;;5.22;0.90;;;12.50;85.80;;;;;;5134201;27;20168;-36
2022/09/18 05:04:06;;;;;;;2.53;0.60;;;12.50;85.80;;;;;;5134219;27;20015;-35
2022/09/18 05:06:31;;;;;;;1.55;0.60;;;12.60;85.90;;;;;;5134334;27;20094;-35
2022/09/18 05:08:57;;;;;;;3.33;0.68;;;12.50;85.80;;;;;;5134181;27;20019;-35
2022/09/18 05:11:23;;;;;;;3.67;0.70;;;12.50;85.80;;;;;;5134450;27;20094;-35
2022/09/18 05:13:49;;;;;;;2.63;0.90;;;12.60;85.90;;;;;;5115954;27;20027;-33
2022/09/18 05:16:15;;;;;;;2.97;0.63;;;12.50;85.90;;;;;;5115639;27;20023;-35
2022/09/18 05:18:41;;;;;;;4.80;0.85;;;12.50;85.90;;;;;;5115940;27;20378;-34
2022/09/18 05:21:06;;;;;;;3.22;0.85;;;12.50;85.90;;;;;;5133878;27;20020;-35
2022/09/18 05:23:33;;;;;;;1.65;0.60;;;12.50;86.00;;;;;;5134183;27;20089;-36
2022/09/18 05:26:00;;;;;;;2.92;0.65;;;12.50;86.00;;;;;;5133783;27;20030;-34
2022/09/18 05:28:25;;;;;;;2.00;0.60;;;12.50;86.00;;;;;;5115540;27;20077;-35
2022/09/18 05:30:51;;;;;;;2.58;0.80;;;12.50;86.00;;;;;;5133765;27;20373;-35
2022/09/18 05:33:16;;;;;;;3.88;1.00;;;12.50;86.00;;;;;;5134005;27;20386;-35
2022/09/18 05:35:42;;;;;;;3.40;0.60;;;12.50;86.00;;;;;;5133843;27;20045;-35
2022/09/18 05:38:09;;;;;;;4.57;1.10;;;12.50;86.10;;;;;;5133647;27;20050;-36
2022/09/18 05:40:36;;;;;;;3.30;0.70;;;12.50;86.10;;;;;;5133654;27;20015;-38
2022/09/18 05:43:03;;;;;;;4.72;0.75;;;12.40;86.00;;;;;;5133565;27;20019;-34
2022/09/18 05:45:28;;;;;;;2.33;0.90;;;12.50;86.20;;;;;;5133607;27;20020;-35
2022/09/18 05:48:03;;;;;;;3.08;1.00;;;12.40;86.20;;;;;;5133449;27;20118;-35
2022/09/18 05:50:30;;;;;;;2.17;0.60;;;12.50;86.40;;;;;;5133367;27;20015;-35
2022/09/18 05:53:03;;;;;;;3.25;0.80;;;12.40;86.10;;;;;;5133436;27;20447;-35
2022/09/18 05:55:29;;;;;;;3.10;0.73;;;12.50;86.20;;;;;;5133722;27;20110;-34
2022/09/18 05:57:55;;;;;;;4.90;0.88;;;12.50;86.20;;;;;;5132999;27;20522;-35
2022/09/18 06:00:23;;;;;;;3.50;0.70;;;12.50;86.10;;;;;;5133280;27;20466;-36
2022/09/18 06:03:09;;;;;;;2.72;0.60;;;12.50;86.10;;;;;;5133179;27;20108;-33
2022/09/18 06:05:36;;;;;;;3.47;0.70;;;12.50;86.00;;;;;;5133344;27;20027;-28
2022/09/18 06:08:05;;;;;;;3.08;0.70;;;12.50;85.90;;;;;;5114711;27;20035;-38
2022/09/18 06:10:32;;;;;;;3.55;0.77;;;12.60;85.90;;;;;;5133584;27;20057;-40
2022/09/18 06:13:04;;;;;;;1.40;0.50;;;12.60;85.80;;;;;;5133491;28;20382;-41
2022/09/18 06:15:31;;;;;;;3.40;0.70;;;12.60;85.80;;;;;;5133365;28;20050;-26
2022/09/18 06:17:57;;;;;;;3.85;0.70;;;12.60;85.70;;;;;;5133495;28;20488;-24
2022/09/18 06:20:23;;;;;;;3.58;0.60;;;12.60;85.60;;;;;;5133758;28;20012;-25
2022/09/18 06:22:48;;;;;;;2.40;0.40;;;12.60;85.60;;;;;;5134265;28;20026;-25
2022/09/18 06:25:17;;;;;;;1.98;0.63;;;12.50;85.60;;;;;;5133578;28;20019;-24
2022/09/18 06:27:42;;;;;;;3.67;0.70;;;12.60;85.80;;;;;;5133677;28;20024;-28
2022/09/18 06:30:08;;;;;;;2.75;0.70;;;12.60;85.80;;;;;;5133315;28;20163;-26
2022/09/18 06:32:34;;;;;;;3.47;0.70;;;12.60;85.70;;;;;;5133499;28;20023;-25
2022/09/18 06:34:59;;;;;;;4.53;0.70;;;12.60;85.70;;;;;;5133260;28;20023;-27
2022/09/18 06:37:25;;;;;;;4.10;0.65;;;12.60;85.60;;;;;;5133428;28;20054;-26
2022/09/18 06:39:51;;;;;;;2.17;0.70;;;12.60;85.70;;;;;;5133200;28;20539;-29
2022/09/18 06:42:16;;;;;;;5.68;0.80;;;12.60;85.70;;;;;;5133431;28;20088;-26
2022/09/18 06:44:42;;;;;;;4.72;0.80;;;12.60;85.60;;;;;;5133598;28;20052;-25
2022/09/18 06:47:07;;;;;;;4.25;0.70;;;12.60;85.60;;;;;;5133339;28;20475;-25
2022/09/18 06:49:33;;;;;;;3.08;0.80;;;12.60;85.60;;;;;;5133582;28;20432;-26
2022/09/18 06:51:59;;;;;;;3.28;0.68;;;12.60;85.70;;;;;;5133643;28;20023;-26
2022/09/18 06:54:24;;;;;;;4.18;1.08;;;12.60;85.60;;;;;;5133297;28;20103;-25
2022/09/18 06:56:50;;;;;;;3.17;0.60;;;12.70;85.70;;;;;;5133204;28;20039;-28
2022/09/18 06:59:16;;;;;;;4.15;0.77;;;12.70;85.60;;;;;;5133135;28;20381;-26
2022/09/18 07:01:41;;;;;;;1.73;0.60;;;12.70;85.60;;;;;;5133251;28;20336;-25
2022/09/18 07:04:07;;;;;;;2.10;0.63;;;12.80;85.60;;;;;;5132861;28;20074;-26
2022/09/18 07:06:33;;;;;;;2.15;0.65;;;12.80;85.50;;;;;;5133180;28;20323;-25
2022/09/18 07:08:58;;;;;;;3.60;0.90;;;12.80;85.60;;;;;;5132623;28;20027;-28
2022/09/18 07:11:24;;;;;;;2.72;0.68;;;12.80;85.50;;;;;;5114130;28;20038;-44
2022/09/18 07:13:50;;;;;;;2.78;0.73;;;12.80;85.50;;;;;;5132570;28;20023;-43
2022/09/18 07:16:16;;;;;;;1.48;0.60;;;12.80;85.40;;;;;;5132996;27;20474;-43
2022/09/18 07:18:42;;;;;;;2.03;0.73;;;12.90;85.40;;;;;;5135644;27;20027;-41
2022/09/18 07:21:07;;;;;;;2.25;0.52;;;12.90;85.30;;;;;;5136503;27;20071;-43
2022/09/18 07:23:33;;;;;;;2.03;0.50;;;12.90;85.30;;;;;;5136571;27;20094;-44
2022/09/18 07:26:00;;;;;;;3.08;0.52;;;12.90;85.20;;;;;;5136544;27;20022;-38
2022/09/18 07:28:26;;;;;;;2.80;0.60;;;12.90;85.20;;;;;;5137490;27;20396;-40
2022/09/18 07:30:51;;;;;;;4.53;0.60;;;12.90;85.20;;;;;;5136357;27;20019;-42
2022/09/18 07:33:17;;;;;;;3.75;0.80;;;12.90;85.20;;;;;;5136387;27;20136;-42
2022/09/18 07:35:42;;;;;;;3.42;1.08;;;13.00;85.20;;;;;;5136539;27;20076;-43
2022/09/18 07:38:08;;;;;;;4.47;1.20;;;13.00;85.10;;;;;;5136026;27;20031;-44
2022/09/18 07:40:35;;;;;;;2.00;0.80;;;13.10;85.20;;;;;;5136225;27;20471;-43
2022/09/18 07:43:03;;;;;;;3.53;0.90;;;13.10;85.10;;;;;;5136918;27;20045;-42
2022/09/18 07:45:28;;;;;;;2.08;0.80;;;13.20;85.00;;;;;;5135945;27;20023;-43
2022/09/18 07:47:54;;;;;;;2.45;0.80;;;13.20;84.90;;;;;;5135975;27;20027;-41
2022/09/18 07:50:21;;;;;;;3.58;0.93;;;13.10;84.80;;;;;;5137101;27;20016;-41
2022/09/18 07:52:58;;;;;;;3.72;0.80;;;13.10;84.90;;;;;;5136178;27;20079;-39
2022/09/18 07:55:25;;;;;;;2.65;0.90;;;13.10;85.00;;;;;;5135963;27;20023;-44
2022/09/18 07:57:59;;;;;;;2.67;0.80;;;13.10;85.10;;;;;;5135761;27;20520;-42
2022/09/18 08:00:27;;;;;;;4.63;1.00;;;13.10;85.10;;;;;;5136123;27;20015;-43
2022/09/18 08:03:12;;;;;;;2.83;0.88;;;13.10;85.10;;;;;;5136645;27;20076;-43
2022/09/18 08:05:41;;;;;;;2.30;0.80;;;13.10;85.30;;;;;;5136019;27;20083;-42
2022/09/18 08:08:12;;;;;;;2.47;0.85;;;13.10;85.30;;;;;;5135701;27;20042;-44
2022/09/18 08:10:40;;;;;;;3.42;0.88;;;13.10;85.40;;;;;;5136191;27;20442;-41
2022/09/18 08:13:06;;;;;;;1.85;0.77;;;13.10;85.40;;;;;;5135606;27;20052;-43
2022/09/18 08:15:33;;;;;;;1.20;0.55;;;13.10;85.40;;;;;;5135646;27;20027;-44
2022/09/18 08:17:59;;;;;;;3.85;0.85;;;13.20;85.50;;;;;;5116953;27;20390;-43
2022/09/18 08:20:25;;;;;;;3.28;0.82;;;13.20;85.50;;;;;;5135761;27;20048;-43
2022/09/18 08:22:51;;;;;;;2.97;0.80;;;13.20;85.50;;;;;;5135311;27;20396;-43
2022/09/18 08:25:17;;;;;;;2.17;0.80;;;13.20;85.60;;;;;;5135509;27;20359;-42
2022/09/18 08:27:43;;;;;;;1.63;0.70;;;13.20;85.60;;;;;;5134952;27;20103;-42
2022/09/18 08:30:11;;;;;;;1.95;0.70;;;13.20;85.50;;;;;;5134883;27;20080;-41
2022/09/18 08:32:36;;;;;;;1.85;0.40;;;13.20;85.40;;;;;;5135233;27;20019;-43
2022/09/18 08:35:03;;;;;;;2.47;0.60;;;13.30;85.40;;;;;;5135154;27;20022;-41
2022/09/18 08:37:29;;;;;;;2.75;0.98;;;13.30;85.40;;;;;;5135233;27;20050;-40
2022/09/18 08:39:55;;;;;;;3.35;1.27;;;13.30;85.30;;;;;;5135181;27;20068;-41
2022/09/18 08:42:41;;;;;;;6.07;0.80;;;13.30;85.30;;;;;;5134834;27;20019;-38
2022/09/18 08:45:33;;;;;;;1.80;0.70;;;13.30;85.30;;;;;;5134662;27;20019;-41
2022/09/18 08:48:14;;;;;;;2.38;0.73;;;13.40;85.20;;;;;;5121352;27;20103;-43
2022/09/18 08:50:44;;;;;;;1.77;0.55;;;13.50;85.10;;;;;;5134941;27;20512;-43
2022/09/18 08:53:18;;;;;;;1.70;0.63;;;13.50;85.00;;;;;;5134966;27;20102;-40
2022/09/18 08:55:46;;;;;;;2.70;0.70;;;13.50;85.00;;;;;;5134924;27;20019;-37
2022/09/18 08:58:23;;;;;;;4.10;0.90;;;13.50;85.00;;;;;;5134308;27;20096;-42
2022/09/18 09:00:57;;;;;;;2.90;0.70;;;13.40;85.10;;;;;;5134626;27;20023;-40
2022/09/18 09:03:41;;;;;;;3.80;0.90;;;13.50;85.30;;;;;;5134938;27;20015;-42
2022/09/18 09:06:33;;;;;;;;;;;13.40;85.50;;;;;;5135476;27;20027;-41
2022/09/18 09:09:01;;;;;;;4.03;1.50;;;13.40;85.60;;;;;;5110369;27;19949;-41
2022/09/18 09:11:45;;;;;;;3.17;1.58;;;13.30;85.60;;;;;;5134507;27;20102;-36
2022/09/18 09:14:48;;;;;;;1.90;1.10;;;13.40;85.80;;;;;;5134148;27;20030;-37
2022/09/18 09:17:21;;;;;;;2.22;0.90;;;13.40;85.80;;;;;;5112120;27;20117;-42
2022/09/18 09:20:02;;;;;;;2.28;0.85;;;13.40;85.90;;;;;;5134122;27;20090;-34
2022/09/18 09:22:40;;;;;;;2.65;0.98;;;13.40;86.00;;;;;;5134348;27;20034;-35
2022/09/18 09:25:34;;;;;;;4.20;0.95;;;13.40;86.10;;;;;;5134307;27;20023;-35
2022/09/18 09:28:15;;;;;;;2.95;0.80;;;13.50;86.10;;;;;;5134212;27;20029;-39
2022/09/18 09:30:43;;;;;;;2.20;1.13;;;13.60;86.10;;;;;;5134025;27;20012;-36
2022/09/18 09:33:39;;;;;;;4.63;1.38;;;13.70;86.10;;;;;;5133976;27;20141;-39
2022/09/18 09:36:12;;;;;;;5.38;1.20;;;13.70;86.00;;;;;;5133426;27;20039;-32
2022/09/18 09:38:38;;;;;;;;;;;13.80;85.90;;;;;;5134495;27;20038;-33
2022/09/18 09:41:27;;;;;;;2.90;0.90;;;13.80;85.90;;;;;;5133260;27;20342;-33
2022/09/18 09:44:02;;;;;;;3.03;0.95;;;13.80;85.80;;;;;;5133959;27;20019;-33
2022/09/18 09:46:50;;;;;;;2.35;0.80;;;13.80;85.90;;;;;;5115373;27;20015;-34
2022/09/18 09:49:27;;;;;;;2.00;0.90;;;13.90;86.00;;;;;;5134035;27;20069;-33
2022/09/18 09:52:00;;;;;;;3.35;0.93;;;13.90;86.00;;;;;;5134096;27;20034;-33
2022/09/18 09:54:25;;;;;;;2.30;0.80;;;13.90;86.00;;;;;;5134229;27;20024;-34
2022/09/18 09:56:58;;;;;;;2.05;0.75;;;13.90;85.90;;;;;;5133292;27;20335;-33
2022/09/18 09:59:39;;;;;;;3.42;0.80;;;14.00;85.90;;;;;;5133548;27;20051;-33
2022/09/18 10:02:22;;;;;;;2.03;0.70;;;14.10;85.90;;;;;;5134021;27;20509;-33
2022/09/18 10:05:08;;;;;;;2.53;0.80;;;14.20;85.70;;;;;;5133551;27;20046;-24
2022/09/18 10:08:01;;;;;;;2.25;0.80;;;14.30;85.60;;;;;;5133547;27;20359;-39
2022/09/18 10:10:41;;;;;;;0.90;0.70;;;14.40;85.60;;;;;;5132547;27;20035;-35
2022/09/18 10:13:18;;;;;;;0.98;0.68;;;14.40;85.50;;;;;;5114846;28;20027;-38
2022/09/18 10:15:48;;;;;;;4.18;1.15;;;14.40;85.40;;;;;;5133955;28;20019;-35
2022/09/18 10:18:28;;;;;;;2.10;0.90;;;14.40;85.30;;;;;;5133367;28;20023;-35
2022/09/18 10:21:00;;;;;;;1.92;0.73;;;14.30;85.30;;;;;;5133015;28;20351;-41
2022/09/18 10:23:33;;;;;;;2.77;0.70;;;14.30;85.30;;;;;;5132940;28;20050;-38
2022/09/18 10:25:59;;;;;;;3.75;0.60;;;14.40;85.10;;;;;;5133022;28;20343;-42
2022/09/18 10:28:28;;;;;;;3.20;1.25;;;14.40;85.10;;;;;;5133166;28;20063;-42
2022/09/18 10:30:56;;;;;;;1.95;0.80;;;14.40;84.80;;;;;;5133140;28;20350;-41
2022/09/18 10:33:38;;;;;;;1.90;0.90;;;14.40;84.70;;;;;;5132917;28;20023;-41
2022/09/18 10:36:26;;;;;;;3.05;0.77;;;14.40;85.30;;;;;;5133068;28;20046;-40
2022/09/18 10:38:52;;;;;;;2.30;0.65;;;14.40;84.70;;;;;;5133005;28;20031;-41
2022/09/18 10:41:21;;;;;;;2.45;0.60;;;14.40;84.80;;;;;;5114566;28;20019;-42
2022/09/18 10:43:55;;;;;;;2.60;1.00;;;14.40;84.80;;;;;;5133083;28;20435;-43
2022/09/18 10:46:30;;;;;;;2.75;0.85;;;14.50;84.80;;;;;;5132770;28;20027;-41
2022/09/18 10:49:30;;;;;;;2.28;0.90;;;14.50;84.60;;;;;;5132906;28;20019;-39
2022/09/18 10:52:26;;;;;;;3.30;0.80;;;14.60;84.50;;;;;;5117131;27;20054;-42
2022/09/18 10:54:59;;;;;;;1.40;0.70;;;14.60;84.30;;;;;;5136827;27;20023;-41
2022/09/18 10:57:29;;;;;;;2.15;0.73;;;14.60;84.20;;;;;;5118133;27;20054;-43
2022/09/18 10:59:55;;;;;;;3.00;0.80;;;14.60;84.30;;;;;;5136852;27;20084;-42
2022/09/18 11:02:25;;;;;;;3.00;0.90;;;14.60;84.40;;;;;;5136648;27;20432;-42
2022/09/18 11:04:52;;;;;;;1.70;0.98;;;14.50;84.40;;;;;;5136784;27;20011;-43
2022/09/18 11:07:18;;;;;;;2.67;0.68;;;14.60;84.50;;;;;;5136503;27;20069;-42
2022/09/18 11:09:45;;;;;;;1.48;0.60;;;14.50;84.40;;;;;;5137144;27;20487;-44
2022/09/18 11:12:29;;;;;;;2.05;0.63;;;14.50;84.40;;;;;;5136314;27;20059;-39
2022/09/18 11:15:03;;;;;;;;;;;14.50;84.30;;;;;;5137467;27;20092;-41
2022/09/18 11:17:32;;;;;;;2.05;0.60;;;14.50;84.30;;;;;;5136445;27;20387;-42
2022/09/18 11:20:38;;;;;;;2.38;0.70;;;14.50;84.40;;;;;;5136503;27;20077;-40
2022/09/18 11:23:26;;;;;;;3.88;1.20;;;14.50;84.30;;;;;;5136432;27;20028;-39
2022/09/18 11:26:10;;;;;;;3.03;0.98;;;14.50;84.20;;;;;;5136274;27;20106;-44
2022/09/18 11:28:37;;;;;;;4.75;0.95;;;14.40;84.30;;;;;;5136649;27;20075;-40
2022/09/18 11:31:13;;;;;;;1.52;0.75;;;14.40;84.40;;;;;;5136214;27;20023;-26
2022/09/18 11:33:49;;;;;;;2.90;1.10;;;14.40;84.50;;;;;;5136463;27;20079;-24
2022/09/18 11:36:23;;;;;;;2.22;1.08;;;14.30;84.50;;;;;;5136587;27;20069;-25
2022/09/18 11:38:49;;;;;;;3.15;0.70;;;14.30;84.60;;;;;;5136403;27;20055;-37
2022/09/18 11:41:24;;;;;;;2.15;0.77;;;14.30;84.70;;;;;;5136510;27;20030;-38
2022/09/18 11:44:31;;;;;;;2.60;0.73;;;14.20;84.80;;;;;;5136395;27;20508;-38
2022/09/18 11:47:18;;;;;;;2.22;0.80;;;14.10;84.90;;;;;;5122739;27;20035;-39
2022/09/18 11:50:16;;;;;;;2.75;0.80;;;14.00;85.00;;;;;;5136364;27;20072;-29
2022/09/18 11:52:49;;;;;;;2.00;0.70;;;14.00;85.10;;;;;;5129043;27;20040;-27
2022/09/18 11:55:38;;;;;;;2.30;0.80;;;13.90;85.20;;;;;;5135903;27;20110;-29
2022/09/18 11:58:09;;;;;;;2.60;0.70;;;14.00;85.30;;;;;;5135670;27;20080;-27
2022/09/18 12:00:50;;;;;;;1.88;0.80;;;13.90;85.20;;;;;;5135748;27;20035;-27
2022/09/18 12:03:33;;;;;;;1.83;0.70;;;13.90;85.20;;;;;;5134953;27;20023;-35
2022/09/18 12:06:01;;;;;;;;;;;14.00;85.10;;;;;;5136157;27;20027;-36
2022/09/18 12:09:10;;;;;;;2.95;0.77;;;14.00;85.00;;;;;;5135377;27;20381;-28
2022/09/18 12:12:03;;;;;;;2.20;0.60;;;13.90;84.90;;;;;;5117698;27;20047;-28
2022/09/18 12:14:39;;;;;;;1.13;0.63;;;14.00;85.00;;;;;;5135438;27;20031;-28
2022/09/18 12:17:31;;;;;;;2.10;0.93;;;13.90;84.90;;;;;;5135718;27;20103;-28
2022/09/18 12:20:26;;;;;;;2.65;1.10;;;13.90;85.00;;;;;;5117192;27;20401;-34
2022/09/18 12:23:00;;;;;;;2.38;0.80;;;13.90;85.10;;;;;;5134894;27;20038;-35
2022/09/18 12:25:36;;;;;;;1.58;0.77;;;13.90;85.10;;;;;;5135355;27;20027;-36
2022/09/18 12:28:02;;;;;;;1.58;0.68;;;13.90;85.20;;;;;;5135174;27;20439;-35
2022/09/18 12:30:41;;;;;;;1.40;0.70;;;14.00;85.20;;;;;;5135386;27;20123;-38
2022/09/18 12:33:30;;;;;;;4.80;0.95;;;14.00;85.20;;;;;;5135543;27;20027;-36
2022/09/18 12:36:04;;;;;;;1.90;0.98;;;14.00;85.10;;;;;;5135458;27;20107;-37
2022/09/18 12:39:01;;;;;;;2.70;0.75;;;14.00;85.10;;;;;;5135151;27;20102;-41
2022/09/18 12:41:50;;;;;;;2.88;0.88;;;14.00;85.10;;;;;;5135036;27;20027;-35
2022/09/18 12:44:31;;;;;;;6.38;1.33;;;14.00;85.10;;;;;;5135086;27;20028;-37
2022/09/18 12:46:56;;;;;;;2.03;0.90;;;14.00;85.10;;;;;;5134810;27;20106;-38
2022/09/18 12:49:37;;;;;;;2.25;1.02;;;14.00;85.00;;;;;;5135047;27;20110;-38
2022/09/18 12:52:11;;;;;;;1.95;0.88;;;14.00;84.90;;;;;;5134813;27;20042;-37
2022/09/18 12:54:55;;;;;;;3.08;0.98;;;14.10;85.00;;;;;;5117240;27;20083;-39
2022/09/18 12:57:32;;;;;;;1.77;0.70;;;14.10;85.00;;;;;;5134888;27;20085;-41
2022/09/18 13:00:07;;;;;;;1.27;0.60;;;14.20;85.00;;;;;;5116694;27;20054;-36
2022/09/18 13:02:40;;;;;;;3.20;0.82;;;14.10;84.90;;;;;;5134791;27;20496;-39
2022/09/18 13:05:20;;;;;;;3.80;0.82;;;14.20;84.90;;;;;;5134832;27;20040;-41
2022/09/18 13:07:56;;;;;;;2.40;0.90;;;14.10;84.90;;;;;;5134974;27;20060;-36
2022/09/18 13:10:30;;;;;;;4.97;1.00;;;14.10;84.90;;;;;;5135411;27;20027;-35
2022/09/18 13:13:01;;;;;;;4.88;1.05;;;14.10;84.90;;;;;;5135085;27;20059;-36